Time;durP1;ratioP1;P1;durP2;ratioP2;P2;SDS_P1;SDS_P2;PMS_P1;PMS_P2;Temp;Humidity;BMP_temperature;BMP_pressure;BME280_temperature;BME280_humidity;BME280_pressure;Samples;Min_cycle;Max_cycle;Signal;HPM_P1;HPM_P2
2022/02/26 00:02:17;;;;;;;;;28.00;22.50;;;;;;;;5039273;28;51062;-49
2022/02/26 00:05:02;;;;;;;;;34.25;23.50;;;;;;;;5039066;28;51068;-49
2022/02/26 00:07:47;;;;;;;;;32.00;25.50;;;;;;;;5039496;28;51160;-48
2022/02/26 00:10:31;;;;;;;;;36.75;23.25;;;;;;;;5039048;28;51482;-44
2022/02/26 00:13:26;;;;;;;;;34.50;22.00;;;;;;;;5039032;28;51155;-48
2022/02/26 00:16:10;;;;;;;;;31.50;24.00;;;;;;;;5038950;28;51142;-47
2022/02/26 00:18:56;;;;;;;;;29.75;22.25;;;;;;;;5039399;28;51078;-46
2022/02/26 00:21:54;;;;;;;;;32.25;22.75;;;;;;;;5038796;28;51143;-48
2022/02/26 00:24:50;;;;;;;;;29.75;23.00;;;;;;;;5038558;28;51169;-47
2022/02/26 00:27:34;;;;;;;;;23.25;23.25;;;;;;;;5039340;28;51040;-45
2022/02/26 00:30:20;;;;;;;;;28.00;21.50;;;;;;;;5049744;28;51519;-47
2022/02/26 00:33:05;;;;;;;;;27.00;22.25;;;;;;;;5038975;28;51064;-50
2022/02/26 00:35:49;;;;;;;;;23.25;20.25;;;;;;;;5038985;28;51024;-49
2022/02/26 00:38:36;;;;;;;;;26.75;19.75;;;;;;;;5048296;28;51011;-48
2022/02/26 00:41:26;;;;;;;;;24.75;21.00;;;;;;;;5044686;28;51124;-48
2022/02/26 00:44:18;;;;;;;;;33.00;25.50;;;;;;;;5042625;28;51587;-45
2022/02/26 00:47:02;;;;;;;;;28.00;21.25;;;;;;;;5042594;28;51534;-47
2022/02/26 00:49:50;;;;;;;;;24.25;20.50;;;;;;;;5041982;28;51262;-47
2022/02/26 00:52:37;;;;;;;;;24.75;22.25;;;;;;;;5042842;28;51069;-46
2022/02/26 00:55:25;;;;;;;;;26.75;21.25;;;;;;;;5042395;28;51212;-50
2022/02/26 00:58:10;;;;;;;;;26.00;21.50;;;;;;;;5046937;28;51355;-46
2022/02/26 01:00:56;;;;;;;;;31.25;27.25;;;;;;;;5042686;28;51671;-47
2022/02/26 01:03:41;;;;;;;;;24.50;21.75;;;;;;;;5042457;28;51052;-50
2022/02/26 01:06:26;;;;;;;;;30.00;23.75;;;;;;;;5044740;28;51550;-49
2022/02/26 01:09:20;;;;;;;;;28.50;22.25;;;;;;;;5042173;28;51367;-46
2022/02/26 01:12:07;;;;;;;;;23.25;20.50;;;;;;;;5041963;28;51148;-50
2022/02/26 01:14:51;;;;;;;;;25.75;20.00;;;;;;;;5041751;28;51009;-48
2022/02/26 01:17:37;;;;;;;;;26.00;21.50;;;;;;;;5042461;28;51111;-47
2022/02/26 01:20:21;;;;;;;;;28.50;22.25;;;;;;;;5041634;28;51307;-47
2022/02/26 01:23:07;;;;;;;;;26.25;22.50;;;;;;;;5061768;28;51140;-46
2022/02/26 01:25:51;;;;;;;;;30.25;22.00;;;;;;;;5062227;28;51142;-49
2022/02/26 01:28:45;;;;;;;;;28.50;21.00;;;;;;;;5051134;28;51129;-49
2022/02/26 01:31:42;;;;;;;;;24.25;21.00;;;;;;;;5041579;28;51108;-49
2022/02/26 01:34:26;;;;;;;;;26.25;21.50;;;;;;;;5041528;28;51244;-49
2022/02/26 01:37:10;;;;;;;;;25.75;20.25;;;;;;;;5042926;28;51484;-49
2022/02/26 01:39:57;;;;;;;;;29.75;24.25;;;;;;;;5041440;28;51162;-47
2022/02/26 01:42:47;;;;;;;;;30.25;22.00;;;;;;;;5041940;28;51114;-50
2022/02/26 01:45:33;;;;;;;;;30.25;22.75;;;;;;;;5041478;28;51484;-49
2022/02/26 01:48:19;;;;;;;;;22.50;19.50;;;;;;;;5041562;28;51074;-45
2022/02/26 01:51:06;;;;;;;;;31.00;21.75;;;;;;;;5045447;28;51236;-49
2022/02/26 01:53:59;;;;;;;;;9.25;4.75;;;;;;;;5041496;28;51143;-49
2022/02/26 01:56:47;;;;;;;;;28.50;19.25;;;;;;;;5041242;28;51635;-51
2022/02/26 01:59:33;;;;;;;;;34.50;23.00;;;;;;;;5041154;28;51025;-49
2022/02/26 02:02:31;;;;;;;;;28.25;25.75;;;;;;;;5041375;28;51142;-47
2022/02/26 02:05:17;;;;;;;;;26.75;22.00;;;;;;;;5041062;28;51095;-48
2022/02/26 02:08:05;;;;;;;;;32.00;21.50;;;;;;;;5041934;28;51064;-49
2022/02/26 02:10:50;;;;;;;;;30.00;23.50;;;;;;;;5040641;28;51977;-49
2022/02/26 02:13:34;;;;;;;;;28.25;23.50;;;;;;;;5040905;28;51193;-46
2022/02/26 02:16:19;;;;;;;;;26.50;18.50;;;;;;;;5040926;28;51238;-47
2022/02/26 02:19:05;;;;;;;;;36.50;22.25;;;;;;;;5041679;28;51017;-49
2022/02/26 02:21:51;;;;;;;;;32.00;23.25;;;;;;;;5040456;28;51570;-50
2022/02/26 02:24:35;;;;;;;;;29.25;23.75;;;;;;;;5061079;28;51123;-52
2022/02/26 02:27:21;;;;;;;;;25.75;22.00;;;;;;;;5057524;28;51440;-50
2022/02/26 02:30:06;;;;;;;;;26.75;23.75;;;;;;;;5040618;28;51179;-48
2022/02/26 02:32:52;;;;;;;;;24.25;23.75;;;;;;;;5059027;28;51103;-50
2022/02/26 02:35:38;;;;;;;;;23.50;15.50;;;;;;;;5045537;28;51148;-50
2022/02/26 02:38:34;;;;;;;;;28.50;23.25;;;;;;;;5047976;28;51139;-47
2022/02/26 02:41:21;;;;;;;;;28.25;24.25;;;;;;;;5040353;28;51107;-48
2022/02/26 02:44:07;;;;;;;;;28.00;21.75;;;;;;;;5040684;28;51155;-48
2022/02/26 02:46:53;;;;;;;;;26.25;21.50;;;;;;;;5044931;28;51175;-48
2022/02/26 02:49:38;;;;;;;;;27.25;19.50;;;;;;;;5040602;28;51129;-47
2022/02/26 02:52:24;;;;;;;;;33.00;23.00;;;;;;;;5041467;28;51510;-50
2022/02/26 02:55:10;;;;;;;;;32.25;22.75;;;;;;;;5039966;28;51084;-46
2022/02/26 02:58:12;;;;;;;;;24.00;23.50;;;;;;;;5036779;28;51297;-48
2022/02/26 03:01:09;;;;;;;;;26.75;20.25;;;;;;;;5038804;28;51132;-48
2022/02/26 03:03:58;;;;;;;;;31.75;23.75;;;;;;;;5040428;28;50996;-47
2022/02/26 03:06:43;;;;;;;;;25.25;20.50;;;;;;;;5047909;28;51203;-50
2022/02/26 03:09:29;;;;;;;;;28.75;23.50;;;;;;;;5040021;28;51171;-51
2022/02/26 03:12:13;;;;;;;;;24.00;20.75;;;;;;;;5039532;28;51230;-50
2022/02/26 03:14:59;;;;;;;;;25.75;21.00;;;;;;;;5039809;28;51138;-47
2022/02/26 03:17:46;;;;;;;;;30.75;26.00;;;;;;;;5039789;28;50991;-47
2022/02/26 03:20:30;;;;;;;;;34.50;26.00;;;;;;;;5039486;28;51105;-47
2022/02/26 03:23:18;;;;;;;;;32.50;23.75;;;;;;;;5039941;28;51128;-47
2022/02/26 03:26:23;;;;;;;;;32.75;24.75;;;;;;;;5039287;28;51127;-48
2022/02/26 03:29:09;;;;;;;;;28.50;22.75;;;;;;;;5039856;28;51180;-45
2022/02/26 03:31:53;;;;;;;;;31.25;24.75;;;;;;;;5039470;28;51516;-45
2022/02/26 03:34:38;;;;;;;;;29.00;23.50;;;;;;;;5039909;28;51176;-51
2022/02/26 03:37:27;;;;;;;;;36.00;23.50;;;;;;;;5039259;28;51105;-48
2022/02/26 03:40:17;;;;;;;;;29.50;22.00;;;;;;;;5039448;28;51531;-47
2022/02/26 03:43:04;;;;;;;;;29.50;25.00;;;;;;;;5039639;28;51410;-49
2022/02/26 03:45:48;;;;;;;;;31.75;22.25;;;;;;;;5039431;28;51374;-49
2022/02/26 03:48:43;;;;;;;;;32.75;22.75;;;;;;;;5039447;28;51175;-48
2022/02/26 03:51:30;;;;;;;;;29.25;25.50;;;;;;;;5039000;28;51049;-47
2022/02/26 03:54:14;;;;;;;;;32.00;22.25;;;;;;;;5039544;28;51120;-51
2022/02/26 03:57:00;;;;;;;;;26.75;24.50;;;;;;;;5039021;28;51029;-49
2022/02/26 03:59:48;;;;;;;;;30.25;22.25;;;;;;;;5039451;28;51016;-46
2022/02/26 04:02:35;;;;;;;;;29.50;21.75;;;;;;;;5039104;28;51492;-46
2022/02/26 04:05:20;;;;;;;;;29.75;27.50;;;;;;;;5044552;28;51296;-46
2022/02/26 04:08:06;;;;;;;;;32.50;28.00;;;;;;;;5039090;28;51022;-48
2022/02/26 04:10:51;;;;;;;;;50.50;39.25;;;;;;;;5038834;28;51105;-47
2022/02/26 04:13:36;;;;;;;;;74.50;59.50;;;;;;;;5042195;28;51173;-46
2022/02/26 04:16:26;;;;;;;;;75.25;64.75;;;;;;;;5043430;28;51036;-50
2022/02/26 04:19:12;;;;;;;;;60.25;47.00;;;;;;;;5043285;28;51084;-46
2022/02/26 04:22:00;;;;;;;;;55.75;43.00;;;;;;;;5042618;28;51214;-49
2022/02/26 04:24:47;;;;;;;;;43.25;33.00;;;;;;;;5044731;28;51068;-46
2022/02/26 04:27:31;;;;;;;;;43.00;34.25;;;;;;;;5043239;28;51484;-50
2022/02/26 04:30:18;;;;;;;;;39.75;30.25;;;;;;;;5042723;28;51153;-48
2022/02/26 04:33:04;;;;;;;;;46.25;36.25;;;;;;;;5048307;28;51609;-46
2022/02/26 04:35:48;;;;;;;;;64.50;48.00;;;;;;;;5043281;28;51253;-47
2022/02/26 04:38:45;;;;;;;;;63.75;46.00;;;;;;;;5042971;28;51184;-48
2022/02/26 04:41:32;;;;;;;;;60.25;43.25;;;;;;;;5042669;28;51534;-47
2022/02/26 04:44:17;;;;;;;;;45.00;34.75;;;;;;;;5043487;28;51160;-51
2022/02/26 04:47:03;;;;;;;;;45.00;34.75;;;;;;;;5046367;28;51198;-45
2022/02/26 04:49:48;;;;;;;;;47.25;33.75;;;;;;;;5063030;28;51006;-45
2022/02/26 04:52:34;;;;;;;;;35.25;32.00;;;;;;;;5062530;28;51153;-49
2022/02/26 04:55:18;;;;;;;;;39.75;29.75;;;;;;;;5047567;28;51129;-50
2022/02/26 04:58:04;;;;;;;;;36.75;31.50;;;;;;;;5047569;28;51564;-47
2022/02/26 05:00:53;;;;;;;;;42.25;32.00;;;;;;;;5040800;28;51105;-52
2022/02/26 05:03:37;;;;;;;;;30.50;28.25;;;;;;;;5042467;28;51197;-48
2022/02/26 05:06:23;;;;;;;;;39.75;31.00;;;;;;;;5062393;28;51522;-50
2022/02/26 05:09:08;;;;;;;;;37.75;32.25;;;;;;;;5062493;28;51634;-46
2022/02/26 05:11:53;;;;;;;;;45.50;32.50;;;;;;;;5050088;28;51099;-49
2022/02/26 05:14:38;;;;;;;;;35.50;26.25;;;;;;;;5042267;28;51073;-48
2022/02/26 05:17:24;;;;;;;;;36.75;29.25;;;;;;;;5042071;28;51504;-50
2022/02/26 05:20:14;;;;;;;;;37.75;30.00;;;;;;;;5041940;28;51162;-48
2022/02/26 05:23:05;;;;;;;;;41.50;31.25;;;;;;;;5054389;28;51152;-46
2022/02/26 05:25:50;;;;;;;;;37.00;28.00;;;;;;;;5060778;28;51094;-47
2022/02/26 05:28:47;;;;;;;;;32.50;29.25;;;;;;;;5062337;28;51025;-48
2022/02/26 05:31:32;;;;;;;;;38.00;28.25;;;;;;;;5053104;28;51136;-45
2022/02/26 05:34:17;;;;;;;;;42.00;32.25;;;;;;;;5041902;28;51088;-48
2022/02/26 05:37:04;;;;;;;;;36.00;30.00;;;;;;;;5041338;28;51065;-51
2022/02/26 05:39:50;;;;;;;;;38.25;31.50;;;;;;;;5041880;28;51367;-48
2022/02/26 05:42:36;;;;;;;;;37.50;30.25;;;;;;;;5042863;28;51477;-49
2022/02/26 05:45:22;;;;;;;;;39.00;31.00;;;;;;;;5048254;28;51240;-48
2022/02/26 05:48:06;;;;;;;;;46.50;34.25;;;;;;;;5045586;28;51296;-46
2022/02/26 05:51:09;;;;;;;;;41.75;32.00;;;;;;;;5044628;28;51229;-50
2022/02/26 05:53:54;;;;;;;;;36.75;31.00;;;;;;;;5046447;28;51173;-48
2022/02/26 05:56:39;;;;;;;;;31.50;29.50;;;;;;;;5046696;28;52236;-53
2022/02/26 05:59:25;;;;;;;;;33.75;28.50;;;;;;;;5041119;28;51665;-53
2022/02/26 06:02:12;;;;;;;;;41.75;31.50;;;;;;;;5041798;28;51534;-55
2022/02/26 06:05:00;;;;;;;;;38.75;33.25;;;;;;;;5041031;28;51072;-52
2022/02/26 06:07:46;;;;;;;;;50.00;36.50;;;;;;;;5041073;28;51356;-55
2022/02/26 06:10:33;;;;;;;;;40.75;33.75;;;;;;;;5048463;28;51341;-52
2022/02/26 06:13:17;;;;;;;;;46.00;38.00;;;;;;;;5040857;28;51695;-55
2022/02/26 06:16:01;;;;;;;;;52.50;39.25;;;;;;;;5049105;28;51094;-55
2022/02/26 06:18:48;;;;;;;;;49.75;38.25;;;;;;;;5041163;28;51037;-55
2022/02/26 06:21:48;;;;;;;;;42.50;33.50;;;;;;;;5059587;28;51362;-49
2022/02/26 06:24:55;;;;;;;;;44.75;34.50;;;;;;;;5060675;28;51629;-52
2022/02/26 06:27:48;;;;;;;;;42.50;34.75;;;;;;;;5056100;28;51107;-53
2022/02/26 06:30:34;;;;;;;;;44.50;33.75;;;;;;;;5040384;28;51075;-55
2022/02/26 06:33:22;;;;;;;;;37.75;34.00;;;;;;;;5040209;28;51175;-58
2022/02/26 06:36:08;;;;;;;;;46.75;36.00;;;;;;;;5040077;28;51139;-52
2022/02/26 06:39:14;;;;;;;;;48.75;36.25;;;;;;;;5040360;28;51104;-56
2022/02/26 06:41:58;;;;;;;;;48.75;37.75;;;;;;;;5039817;28;51342;-56
2022/02/26 06:44:44;;;;;;;;;48.75;36.00;;;;;;;;5044269;28;51119;-52
2022/02/26 06:47:29;;;;;;;;;51.00;38.50;;;;;;;;5059651;28;51067;-54
2022/02/26 06:50:14;;;;;;;;;48.25;39.25;;;;;;;;5060323;28;51728;-55
2022/02/26 06:53:02;;;;;;;;;50.00;39.00;;;;;;;;5039755;28;51061;-58
2022/02/26 06:55:48;;;;;;;;;52.25;39.00;;;;;;;;5040257;28;51057;-55
2022/02/26 06:58:32;;;;;;;;;52.00;35.75;;;;;;;;5039619;28;51116;-52
2022/02/26 07:01:16;;;;;;;;;48.75;37.50;;;;;;;;5039691;28;51076;-50
2022/02/26 07:04:05;;;;;;;;;46.25;36.00;;;;;;;;5044785;28;51158;-57
2022/02/26 07:06:50;;;;;;;;;52.75;38.50;;;;;;;;5042590;28;51218;-56
2022/02/26 07:09:34;;;;;;;;;46.75;37.25;;;;;;;;5039922;28;51204;-48
2022/02/26 07:12:19;;;;;;;;;50.25;38.00;;;;;;;;5054329;28;51179;-54
2022/02/26 07:15:10;;;;;;;;;47.50;37.75;;;;;;;;5059880;28;51663;-52
2022/02/26 07:17:55;;;;;;;;;51.00;35.75;;;;;;;;5059490;28;51235;-56
2022/02/26 07:20:49;;;;;;;;;49.75;38.00;;;;;;;;5051633;28;51867;-53
2022/02/26 07:23:41;;;;;;;;;47.00;35.50;;;;;;;;5039145;28;51123;-55
2022/02/26 07:26:27;;;;;;;;;54.25;40.00;;;;;;;;5039496;28;51145;-56
2022/02/26 07:29:15;;;;;;;;;53.00;40.75;;;;;;;;5059462;28;51659;-54
2022/02/26 07:32:07;;;;;;;;;46.25;37.25;;;;;;;;5040396;28;51077;-56
2022/02/26 07:34:51;;;;;;;;;49.25;39.75;;;;;;;;5039599;28;51084;-55
2022/02/26 07:37:36;;;;;;;;;50.50;37.50;;;;;;;;5039366;28;51117;-55
2022/02/26 07:40:21;;;;;;;;;46.00;36.50;;;;;;;;5041664;28;51866;-54
2022/02/26 07:43:06;;;;;;;;;51.00;37.25;;;;;;;;5039302;28;51170;-54
2022/02/26 07:45:51;;;;;;;;;49.25;37.00;;;;;;;;5039648;28;51111;-54
2022/02/26 07:48:38;;;;;;;;;48.75;37.75;;;;;;;;5038342;28;51398;-54
2022/02/26 07:51:27;;;;;;;;;45.50;37.25;;;;;;;;5042251;28;51140;-55
2022/02/26 07:54:14;;;;;;;;;49.50;37.50;;;;;;;;5047081;28;51682;-53
2022/02/26 07:56:59;;;;;;;;;46.25;35.25;;;;;;;;5047389;28;51207;-54
2022/02/26 07:59:44;;;;;;;;;47.00;36.25;;;;;;;;5049216;28;51131;-56
2022/02/26 08:02:29;;;;;;;;;45.75;35.00;;;;;;;;5047593;28;52025;-53
2022/02/26 08:05:14;;;;;;;;;44.50;34.00;;;;;;;;5047937;28;51752;-56
2022/02/26 08:07:58;;;;;;;;;39.50;32.00;;;;;;;;5042192;28;51147;-56
2022/02/26 08:10:44;;;;;;;;;46.75;35.50;;;;;;;;5039455;28;51011;-53
2022/02/26 08:13:30;;;;;;;;;45.00;35.00;;;;;;;;5039047;28;51427;-52
2022/02/26 08:16:19;;;;;;;;;48.25;34.00;;;;;;;;5038887;28;51522;-55
2022/02/26 08:19:03;;;;;;;;;41.00;33.25;;;;;;;;5039124;28;51089;-50
2022/02/26 08:22:10;;;;;;;;;40.00;33.00;;;;;;;;5038246;28;51186;-55
2022/02/26 08:24:58;;;;;;;;;38.00;30.00;;;;;;;;5055150;28;51183;-54
2022/02/26 08:27:44;;;;;;;;;45.00;34.75;;;;;;;;5059124;28;51146;-53
2022/02/26 08:30:31;;;;;;;;;45.75;34.50;;;;;;;;5043203;28;51743;-53
2022/02/26 08:33:17;;;;;;;;;41.00;32.75;;;;;;;;5043057;28;53170;-56
2022/02/26 08:36:22;;;;;;;;;47.25;34.75;;;;;;;;5043906;28;51202;-53
2022/02/26 08:39:08;;;;;;;;;44.25;33.50;;;;;;;;5038405;28;51473;-54
2022/02/26 08:42:02;;;;;;;;;39.75;31.00;;;;;;;;5038887;28;51109;-54
2022/02/26 08:45:02;;;;;;;;;39.75;30.75;;;;;;;;5038573;28;51509;-52
2022/02/26 08:47:49;;;;;;;;;41.25;29.25;;;;;;;;5038401;28;51041;-55
2022/02/26 08:50:33;;;;;;;;;39.25;31.00;;;;;;;;5042653;28;51211;-53
2022/02/26 08:53:26;;;;;;;;;31.75;27.75;;;;;;;;5038854;28;51156;-54
2022/02/26 08:56:12;;;;;;;;;34.75;29.75;;;;;;;;5038554;28;51546;-50
2022/02/26 08:58:58;;;;;;;;;34.00;25.50;;;;;;;;5039893;28;51119;-51
2022/02/26 09:01:42;;;;;;;;;41.50;30.75;;;;;;;;5043118;28;51185;-56
2022/02/26 09:04:27;;;;;;;;;35.50;29.25;;;;;;;;5042238;28;51445;-51
2022/02/26 09:07:11;;;;;;;;;42.25;32.50;;;;;;;;5042237;28;51127;-51
2022/02/26 09:09:57;;;;;;;;;33.75;26.75;;;;;;;;5042124;28;51632;-51
2022/02/26 09:12:43;;;;;;;;;32.25;27.00;;;;;;;;5042231;28;51966;-52
2022/02/26 09:15:31;;;;;;;;;33.75;27.25;;;;;;;;5042913;28;51049;-55
2022/02/26 09:18:23;;;;;;;;;37.00;30.50;;;;;;;;5060226;28;51115;-54
2022/02/26 09:21:13;;;;;;;;;37.75;27.50;;;;;;;;5061993;28;52141;-49
2022/02/26 09:23:58;;;;;;;;;28.25;25.25;;;;;;;;5046617;28;51072;-53
2022/02/26 09:26:43;;;;;;;;;38.00;27.50;;;;;;;;5062068;28;51024;-52
2022/02/26 09:29:29;;;;;;;;;34.75;27.25;;;;;;;;5048374;28;51369;-55
2022/02/26 09:32:23;;;;;;;;;27.00;20.75;;;;;;;;5041719;28;51158;-56
2022/02/26 09:35:16;;;;;;;;;28.25;23.50;;;;;;;;5049238;28;51207;-53
2022/02/26 09:38:01;;;;;;;;;30.50;22.75;;;;;;;;5041481;28;51366;-46
2022/02/26 09:40:45;;;;;;;;;29.75;22.50;;;;;;;;5042043;28;51108;-53
2022/02/26 09:43:42;;;;;;;;;30.50;24.00;;;;;;;;5040585;28;51255;-52
2022/02/26 09:46:27;;;;;;;;;30.00;19.00;;;;;;;;5040922;28;51461;-48
2022/02/26 09:49:11;;;;;;;;;28.75;25.00;;;;;;;;5041745;28;51202;-55
2022/02/26 09:52:02;;;;;;;;;27.50;22.25;;;;;;;;5041172;28;51148;-54
2022/02/26 09:54:48;;;;;;;;;28.75;24.25;;;;;;;;5040598;28;51294;-52
2022/02/26 09:57:35;;;;;;;;;32.75;26.00;;;;;;;;5040790;28;51014;-53
2022/02/26 10:00:21;;;;;;;;;29.50;24.25;;;;;;;;5040656;28;51412;-52
2022/02/26 10:03:05;;;;;;;;;33.00;26.25;;;;;;;;5041150;28;51194;-52
2022/02/26 10:06:09;;;;;;;;;31.50;25.00;;;;;;;;5040876;28;51140;-50
2022/02/26 10:08:55;;;;;;;;;29.50;22.75;;;;;;;;5040633;28;51120;-56
2022/02/26 10:11:41;;;;;;;;;35.25;23.25;;;;;;;;5039688;28;51105;-55
2022/02/26 10:14:26;;;;;;;;;33.00;22.75;;;;;;;;5045775;28;51389;-51
2022/02/26 10:17:10;;;;;;;;;34.00;25.50;;;;;;;;5041358;28;51571;-53
2022/02/26 10:20:23;;;;;;;;;28.75;24.00;;;;;;;;5041588;28;51457;-54
2022/02/26 10:23:08;;;;;;;;;29.25;25.50;;;;;;;;5043205;28;51459;-53
2022/02/26 10:26:15;;;;;;;;;33.00;25.00;;;;;;;;5053026;28;51504;-51
2022/02/26 10:29:07;;;;;;;;;23.50;21.25;;;;;;;;5045691;28;51104;-55
2022/02/26 10:31:52;;;;;;;;;31.50;20.75;;;;;;;;5053094;28;51183;-54
2022/02/26 10:34:41;;;;;;;;;23.25;20.00;;;;;;;;5051786;28;51219;-51
2022/02/26 10:37:26;;;;;;;;;17.25;6.75;;;;;;;;5047606;28;51175;-53
2022/02/26 10:40:11;;;;;;;;;28.75;24.75;;;;;;;;5053380;28;51080;-53
2022/02/26 10:42:55;;;;;;;;;32.75;27.00;;;;;;;;5052290;28;51189;-55
2022/02/26 10:45:40;;;;;;;;;28.50;23.75;;;;;;;;5049948;28;51544;-56
2022/02/26 10:48:38;;;;;;;;;28.75;26.25;;;;;;;;5052635;28;51255;-55
2022/02/26 10:51:25;;;;;;;;;35.25;25.50;;;;;;;;5050940;28;51558;-55
2022/02/26 10:54:25;;;;;;;;;35.50;25.75;;;;;;;;5049815;28;51138;-54
2022/02/26 10:57:15;;;;;;;;;32.00;26.00;;;;;;;;5054437;28;51011;-57
2022/02/26 11:00:00;;;;;;;;;37.00;25.50;;;;;;;;5044973;28;51250;-53
2022/02/26 11:02:44;;;;;;;;;32.50;23.50;;;;;;;;5046567;28;50814;-53
2022/02/26 11:05:30;;;;;;;;;28.00;24.50;;;;;;;;5047922;28;51170;-57
2022/02/26 11:08:15;;;;;;;;;29.75;25.25;;;;;;;;5049205;28;51119;-56
2022/02/26 11:11:02;;;;;;;;;32.00;25.50;;;;;;;;5048642;28;51416;-51
2022/02/26 11:13:54;;;;;;;;;18.25;14.50;;;;;;;;5046281;28;51298;-52
2022/02/26 11:16:40;;;;;;;;;29.50;23.25;;;;;;;;5057285;28;51179;-57
2022/02/26 11:19:26;;;;;;;;;25.25;21.50;;;;;;;;5050751;28;51443;-53
2022/02/26 11:22:13;;;;;;;;;30.50;24.50;;;;;;;;5056846;28;51056;-55
2022/02/26 11:24:57;;;;;;;;;33.00;25.50;;;;;;;;5043480;28;51052;-55
2022/02/26 11:27:42;;;;;;;;;30.75;24.50;;;;;;;;5038827;28;51203;-53
2022/02/26 11:30:32;;;;;;;;;33.25;24.00;;;;;;;;5048228;28;51164;-57
2022/02/26 11:33:18;;;;;;;;;26.25;20.50;;;;;;;;5046294;28;51136;-53
2022/02/26 11:36:04;;;;;;;;;26.75;19.00;;;;;;;;5038482;28;51017;-50
2022/02/26 11:38:56;;;;;;;;;26.00;19.25;;;;;;;;5042236;28;51105;-47
2022/02/26 11:42:12;;;;;;;;;29.50;22.00;;;;;;;;5036641;28;52158;-56
2022/02/26 11:45:01;;;;;;;;;28.00;21.50;;;;;;;;4998690;28;51232;-54
2022/02/26 11:47:45;;;;;;;;;29.00;25.25;;;;;;;;4988577;28;51200;-57
2022/02/26 11:50:34;;;;;;;;;31.75;21.25;;;;;;;;4992677;28;51277;-51
2022/02/26 11:53:23;;;;;;;;;25.75;23.75;;;;;;;;4996150;28;51533;-56
2022/02/26 11:56:08;;;;;;;;;31.50;23.75;;;;;;;;5050727;28;51197;-54
2022/02/26 11:59:02;;;;;;;;;28.25;22.50;;;;;;;;5047326;28;51108;-53
2022/02/26 12:02:13;;;;;;;;;32.25;23.50;;;;;;;;5044617;28;51099;-53
2022/02/26 12:05:01;;;;;;;;;29.75;21.00;;;;;;;;5031894;28;51439;-54
2022/02/26 12:07:48;;;;;;;;;27.25;24.50;;;;;;;;5047032;28;51071;-55
2022/02/26 12:10:32;;;;;;;;;26.75;20.25;;;;;;;;5043982;28;51053;-52
2022/02/26 12:13:25;;;;;;;;;31.25;25.50;;;;;;;;5040042;28;51282;-56
2022/02/26 12:16:23;;;;;;;;;30.75;23.25;;;;;;;;5049866;28;50993;-52
2022/02/26 12:19:14;;;;;;;;;23.00;19.00;;;;;;;;5046589;28;51424;-56
2022/02/26 12:22:03;;;;;;;;;31.75;24.50;;;;;;;;5052082;28;51111;-53
2022/02/26 12:24:53;;;;;;;;;25.50;22.00;;;;;;;;5049497;28;51029;-54
2022/02/26 12:27:42;;;;;;;;;25.50;22.00;;;;;;;;5041174;28;51571;-54
2022/02/26 12:30:32;;;;;;;;;27.25;21.50;;;;;;;;5038020;28;51199;-57
2022/02/26 12:33:20;;;;;;;;;29.50;26.00;;;;;;;;5054825;28;51147;-54
2022/02/26 12:36:08;;;;;;;;;27.25;20.25;;;;;;;;5049350;28;50986;-55
2022/02/26 12:38:54;;;;;;;;;35.25;23.75;;;;;;;;5039108;28;51018;-53
2022/02/26 12:41:43;;;;;;;;;27.50;26.00;;;;;;;;5058048;28;51345;-55
2022/02/26 12:44:27;;;;;;;;;27.25;23.25;;;;;;;;5046650;28;51270;-53
2022/02/26 12:47:11;;;;;;;;;27.75;24.00;;;;;;;;5047199;28;51101;-52
2022/02/26 12:49:59;;;;;;;;;30.50;24.25;;;;;;;;5049009;28;51184;-54
2022/02/26 12:52:56;;;;;;;;;33.50;23.50;;;;;;;;5048937;28;51172;-51
2022/02/26 12:55:41;;;;;;;;;34.50;24.75;;;;;;;;5056317;28;51238;-54
2022/02/26 12:58:37;;;;;;;;;32.00;22.50;;;;;;;;5054992;28;51512;-53
2022/02/26 13:01:27;;;;;;;;;32.75;22.50;;;;;;;;5038176;28;51164;-55
2022/02/26 13:04:14;;;;;;;;;27.50;22.25;;;;;;;;5057617;28;51084;-54
2022/02/26 13:07:16;;;;;;;;;33.25;24.25;;;;;;;;5047135;28;51126;-53
2022/02/26 13:10:00;;;;;;;;;31.50;23.75;;;;;;;;5049802;28;51541;-55
2022/02/26 13:12:45;;;;;;;;;37.00;26.00;;;;;;;;5052683;28;51676;-56
2022/02/26 13:15:33;;;;;;;;;33.00;25.00;;;;;;;;5053009;28;51189;-52
2022/02/26 13:18:20;;;;;;;;;30.50;24.25;;;;;;;;5052430;28;51555;-48
2022/02/26 13:21:23;;;;;;;;;25.75;24.25;;;;;;;;5055082;28;51052;-51
2022/02/26 13:24:08;;;;;;;;;26.00;19.50;;;;;;;;5049284;28;51129;-52
2022/02/26 13:26:54;;;;;;;;;28.75;23.00;;;;;;;;5055399;28;51150;-53
2022/02/26 13:29:45;;;;;;;;;27.00;21.50;;;;;;;;5047282;28;51160;-53
2022/02/26 13:32:33;;;;;;;;;29.00;23.00;;;;;;;;5053817;28;51081;-50
2022/02/26 13:35:19;;;;;;;;;24.00;18.25;;;;;;;;5053013;28;51673;-51
2022/02/26 13:38:06;;;;;;;;;26.25;22.75;;;;;;;;5052444;28;51099;-55
2022/02/26 13:40:51;;;;;;;;;36.75;24.75;;;;;;;;5047173;28;51047;-52
2022/02/26 13:43:36;;;;;;;;;33.75;23.75;;;;;;;;5052588;28;51170;-51
2022/02/26 13:46:20;;;;;;;;;29.25;24.50;;;;;;;;5052617;28;51088;-51
2022/02/26 13:49:10;;;;;;;;;32.75;25.75;;;;;;;;5050616;28;51649;-53
2022/02/26 13:51:57;;;;;;;;;29.00;24.75;;;;;;;;5044733;28;51154;-54
2022/02/26 13:54:58;;;;;;;;;37.00;28.00;;;;;;;;5057120;28;51594;-49
2022/02/26 13:57:56;;;;;;;;;26.25;22.25;;;;;;;;5056910;28;51463;-56
2022/02/26 14:00:41;;;;;;;;;33.50;24.25;;;;;;;;5042951;28;51234;-53
2022/02/26 14:03:27;;;;;;;;;32.00;24.25;;;;;;;;5059208;28;51640;-55
2022/02/26 14:06:31;;;;;;;;;38.25;27.00;;;;;;;;5052872;28;51036;-54
2022/02/26 14:09:19;;;;;;;;;28.75;22.75;;;;;;;;5055620;28;51069;-55
2022/02/26 14:12:06;;;;;;;;;31.25;25.00;;;;;;;;5054219;28;51150;-55
2022/02/26 14:14:54;;;;;;;;;38.00;28.75;;;;;;;;5043147;28;51090;-55
2022/02/26 14:17:39;;;;;;;;;29.75;24.50;;;;;;;;5040570;28;50978;-52
2022/02/26 14:20:33;;;;;;;;;29.25;24.75;;;;;;;;5041214;28;51175;-48
2022/02/26 14:23:24;;;;;;;;;29.25;22.25;;;;;;;;5056610;28;51083;-49
2022/02/26 14:26:18;;;;;;;;;30.75;25.25;;;;;;;;5060347;28;51451;-52
2022/02/26 14:29:06;;;;;;;;;34.00;24.00;;;;;;;;5049732;28;51183;-54
2022/02/26 14:32:06;;;;;;;;;26.50;23.75;;;;;;;;5040552;28;51093;-56
2022/02/26 14:35:05;;;;;;;;;30.00;24.25;;;;;;;;5039946;28;51551;-52
2022/02/26 14:37:51;;;;;;;;;30.75;22.75;;;;;;;;5040104;28;51172;-54
2022/02/26 14:40:36;;;;;;;;;36.75;23.00;;;;;;;;5039576;28;51342;-56
2022/02/26 14:43:20;;;;;;;;;29.50;25.00;;;;;;;;5040222;28;51139;-54
2022/02/26 14:46:08;;;;;;;;;33.50;25.25;;;;;;;;5039635;28;51158;-50
2022/02/26 14:48:54;;;;;;;;;30.50;20.25;;;;;;;;5039047;28;52453;-51
2022/02/26 14:51:44;;;;;;;;;24.00;20.25;;;;;;;;5042101;28;51013;-50
2022/02/26 14:54:30;;;;;;;;;34.50;24.50;;;;;;;;5031679;28;51050;-53
2022/02/26 14:57:17;;;;;;;;;32.25;20.25;;;;;;;;5039801;28;51175;-50
2022/02/26 15:00:01;;;;;;;;;27.00;21.25;;;;;;;;5025421;28;51478;-51
2022/02/26 15:02:48;;;;;;;;;31.75;24.00;;;;;;;;5059458;28;51106;-55
2022/02/26 15:05:33;;;;;;;;;27.75;24.75;;;;;;;;5059697;28;51042;-53
2022/02/26 15:08:18;;;;;;;;;24.00;20.00;;;;;;;;5057728;28;51058;-53
2022/02/26 15:11:03;;;;;;;;;29.75;22.00;;;;;;;;5044633;28;51425;-55
2022/02/26 15:14:06;;;;;;;;;31.00;22.00;;;;;;;;5048836;28;52258;-52
2022/02/26 15:16:50;;;;;;;;;27.75;19.75;;;;;;;;5054459;28;51480;-54
2022/02/26 15:19:36;;;;;;;;;29.00;21.25;;;;;;;;5052174;28;51335;-53
2022/02/26 15:22:20;;;;;;;;;30.00;21.75;;;;;;;;5047202;28;51096;-50
2022/02/26 15:25:05;;;;;;;;;26.50;19.75;;;;;;;;5048270;28;51532;-50
2022/02/26 15:27:51;;;;;;;;;24.50;23.25;;;;;;;;5040767;28;51369;-54
2022/02/26 15:30:38;;;;;;;;;33.00;24.50;;;;;;;;5049017;28;52693;-53
2022/02/26 15:33:44;;;;;;;;;21.75;20.75;;;;;;;;5050102;28;51174;-52
2022/02/26 15:36:31;;;;;;;;;27.50;22.75;;;;;;;;5055629;28;51126;-56
2022/02/26 15:39:37;;;;;;;;;26.25;21.00;;;;;;;;5052811;28;51169;-52
2022/02/26 15:42:22;;;;;;;;;27.50;23.25;;;;;;;;5054882;28;51380;-53
2022/02/26 15:45:07;;;;;;;;;31.00;24.75;;;;;;;;5042604;28;51099;-53
2022/02/26 15:47:53;;;;;;;;;28.75;22.25;;;;;;;;5050023;28;51322;-55
2022/02/26 15:50:44;;;;;;;;;27.25;19.25;;;;;;;;5050129;28;51559;-52
2022/02/26 15:53:41;;;;;;;;;29.50;18.00;;;;;;;;5053806;28;51224;-52
2022/02/26 15:56:25;;;;;;;;;29.00;19.50;;;;;;;;5054584;28;51497;-57
2022/02/26 15:59:10;;;;;;;;;24.00;21.00;;;;;;;;5051437;28;51434;-53
2022/02/26 16:01:58;;;;;;;;;32.75;24.25;;;;;;;;5049332;28;51189;-55
2022/02/26 16:04:43;;;;;;;;;24.75;18.00;;;;;;;;5061232;28;51419;-56
2022/02/26 16:07:37;;;;;;;;;25.50;21.25;;;;;;;;5057644;28;51504;-52
2022/02/26 16:10:21;;;;;;;;;26.25;23.50;;;;;;;;5050831;28;51099;-57
2022/02/26 16:13:07;;;;;;;;;32.00;24.75;;;;;;;;5053326;28;51038;-57
2022/02/26 16:15:57;;;;;;;;;30.25;21.75;;;;;;;;5048434;28;51040;-50
2022/02/26 16:18:42;;;;;;;;;25.00;20.50;;;;;;;;5052792;28;51139;-53